Time;durP1;ratioP1;P1;durP2;ratioP2;P2;SDS_P1;SDS_P2;PMS_P1;PMS_P2;Temp;Humidity;BMP_temperature;BMP_pressure;BME280_temperature;BME280_humidity;BME280_pressure;Samples;Min_cycle;Max_cycle;Signal;HPM_P1;HPM_P2
2021/10/13 00:01:12;;;;;;;;;;;6.70;99.90;;;;;;5054457;28;19909;-83
2021/10/13 00:03:38;;;;;;;;;;;6.80;99.90;;;;;;5057626;28;19958;-83
2021/10/13 00:06:03;;;;;;;;;;;6.80;99.90;;;;;;5057465;28;19909;-83
2021/10/13 00:08:29;;;;;;;;;;;6.80;99.90;;;;;;5057983;28;19909;-83
2021/10/13 00:10:54;;;;;;;;;;;6.80;99.90;;;;;;5053313;28;19958;-83
2021/10/13 00:13:20;;;;;;;;;;;6.80;99.90;;;;;;5074563;28;19939;-84
2021/10/13 00:15:45;;;;;;;;;;;6.90;99.90;;;;;;5074320;28;19966;-83
2021/10/13 00:18:11;;;;;;;;;;;6.90;99.90;;;;;;5075205;28;19958;-83
2021/10/13 00:20:37;;;;;;;;;;;6.90;99.90;;;;;;5078599;28;19985;-83
2021/10/13 00:23:02;;;;;;;;;;;6.90;99.90;;;;;;5047474;28;20280;-83
2021/10/13 00:25:28;;;;;;;;;;;6.80;99.90;;;;;;5052090;28;19916;-84
2021/10/13 00:27:54;;;;;;;;;;;6.90;99.90;;;;;;5077650;28;19978;-82
2021/10/13 00:30:19;;;;;;;;;;;6.90;99.90;;;;;;5059325;28;19908;-83
2021/10/13 00:32:45;;;;;;;;;;;6.80;99.90;;;;;;5060034;28;19908;-83
2021/10/13 00:35:11;;;;;;;;;;;6.80;99.90;;;;;;5047799;28;19939;-84
2021/10/13 00:37:36;;;;;;;;;;;6.70;99.90;;;;;;5039276;28;19962;-85
2021/10/13 00:40:02;;;;;;;;;;;6.70;99.90;;;;;;5050606;28;19948;-85
2021/10/13 00:42:28;;;;;;;;;;;6.70;99.90;;;;;;5058580;28;19908;-84
2021/10/13 00:44:53;;;;;;;;;;;6.50;99.90;;;;;;5059718;28;19916;-84
2021/10/13 00:47:19;;;;;;;;;;;6.50;99.90;;;;;;5056800;28;19908;-83
2021/10/13 00:49:44;;;;;;;;;;;6.30;99.90;;;;;;5076810;28;19908;-84
2021/10/13 00:52:12;;;;;;;;;;;6.20;99.90;;;;;;5055006;28;19916;-83
2021/10/13 00:54:38;;;;;;;;;;;6.10;99.90;;;;;;5045332;28;19923;-83
2021/10/13 00:57:03;;;;;;;;;;;6.00;99.90;;;;;;5048325;28;19920;-83
2021/10/13 00:59:29;;;;;;;;;;;5.90;99.90;;;;;;5069880;28;19908;-84
2021/10/13 01:02:03;;;;;;;;;;;5.80;99.90;;;;;;5055963;28;20348;-83
2021/10/13 01:04:28;;;;;;;;;;;5.80;99.90;;;;;;5066686;28;19916;-82
2021/10/13 01:06:58;;;;;;;;;;;5.70;99.90;;;;;;5093476;28;19909;-83
2021/10/13 01:09:25;;;;;;;;;;;5.80;99.90;;;;;;5044376;28;19912;-83
2021/10/13 01:12:07;;;;;;;;;;;5.80;99.90;;;;;;5057162;28;19908;-83
2021/10/13 01:14:51;;;;;;;;;;;6.00;99.90;;;;;;5050889;28;20287;-83
2021/10/13 01:17:29;;;;;;;;;;;6.10;99.90;;;;;;5064900;28;19944;-83
2021/10/13 01:19:55;;;;;;;;;;;6.10;99.90;;;;;;5069890;28;19983;-83
2021/10/13 01:22:36;;;;;;;;;;;6.10;99.90;;;;;;5068444;28;19952;-83
2021/10/13 01:25:04;;;;;;;;;;;6.10;99.90;;;;;;5038560;28;19909;-82
2021/10/13 01:27:35;;;;;;;;;;;6.10;99.90;;;;;;5050551;28;20406;-82
2021/10/13 01:30:02;;;;;;;;;;;6.20;99.90;;;;;;5047234;28;19913;-83
2021/10/13 01:32:29;;;;;;;;;;;6.20;99.90;;;;;;5056581;28;19912;-83
2021/10/13 01:34:57;;;;;;;;;;;6.20;99.90;;;;;;5038310;28;20331;-82
2021/10/13 01:37:26;;;;;;;;;;;6.20;99.90;;;;;;5076876;28;20284;-83
2021/10/13 01:39:53;;;;;;;;;;;6.20;99.90;;;;;;5053816;28;19909;-83
2021/10/13 01:42:19;;;;;;;;;;;6.30;99.90;;;;;;5058064;28;19914;-85
2021/10/13 01:44:49;;;;;;;;;;;6.20;99.90;;;;;;5075965;28;19960;-82
2021/10/13 01:47:17;;;;;;;;;;;6.20;99.90;;;;;;5076691;28;19939;-82
2021/10/13 01:49:43;;;;;;;;;;;6.30;99.90;;;;;;5057042;28;19908;-83
2021/10/13 01:52:09;;;;;;;;;;;6.20;99.90;;;;;;5074613;28;19936;-82
2021/10/13 01:54:36;;;;;;;;;;;6.20;99.90;;;;;;5056437;28;20280;-82
2021/10/13 01:57:02;;;;;;;;;;;6.20;99.90;;;;;;5037013;28;19917;-82
2021/10/13 01:59:28;;;;;;;;;;;6.20;99.90;;;;;;5049039;28;19913;-82
2021/10/13 02:01:54;;;;;;;;;;;6.10;99.90;;;;;;5057273;28;19909;-82
2021/10/13 02:04:20;;;;;;;;;;;6.10;99.90;;;;;;5056498;28;19908;-83
2021/10/13 02:06:47;;;;;;;;;;;6.10;99.90;;;;;;5056147;28;19909;-82
2021/10/13 02:09:14;;;;;;;;;;;6.10;99.90;;;;;;5065762;28;19908;-83
2021/10/13 02:11:40;;;;;;;;;;;6.10;99.90;;;;;;5055911;28;19908;-82
2021/10/13 02:14:08;;;;;;;;;;;6.10;99.90;;;;;;5056058;28;19956;-82
2021/10/13 02:16:34;;;;;;;;;;;6.10;99.90;;;;;;5066937;28;19920;-83
2021/10/13 02:19:03;;;;;;;;;;;6.10;99.90;;;;;;5074261;28;19931;-82
2021/10/13 02:21:30;;;;;;;;;;;6.10;99.90;;;;;;5045483;28;20000;-83
2021/10/13 02:23:58;;;;;;;;;;;6.10;99.90;;;;;;5054021;28;19909;-82
2021/10/13 02:26:38;;;;;;;;;;;6.10;99.90;;;;;;5054432;28;19913;-83
2021/10/13 02:29:08;;;;;;;;;;;6.10;99.90;;;;;;5055943;28;19916;-83
2021/10/13 02:31:33;;;;;;;;;;;6.10;99.90;;;;;;5056005;28;20391;-83
2021/10/13 02:33:59;;;;;;;;;;;6.10;99.90;;;;;;5056181;28;19909;-82
2021/10/13 02:36:24;;;;;;;;;;;6.10;99.90;;;;;;5056496;28;19912;-82
2021/10/13 02:38:50;;;;;;;;;;;6.10;99.90;;;;;;5057205;28;19934;-82
2021/10/13 02:41:15;;;;;;;;;;;6.10;99.90;;;;;;5070331;28;20389;-83
2021/10/13 02:43:41;;;;;;;;;;;6.10;99.90;;;;;;5072866;28;20419;-83
2021/10/13 02:46:11;;;;;;;;;;;6.10;99.90;;;;;;5057874;28;19912;-82
2021/10/13 02:48:40;;;;;;;;;;;6.10;99.90;;;;;;5057716;28;19958;-82
2021/10/13 02:51:06;;;;;;;;;;;6.10;99.90;;;;;;5056453;28;19909;-82
2021/10/13 02:53:38;;;;;;;;;;;6.10;99.90;;;;;;5075920;28;19955;-83
2021/10/13 02:56:14;;;;;;;;;;;6.10;99.90;;;;;;5050049;28;19912;-83
2021/10/13 02:58:41;;;;;;;;;;;6.10;99.90;;;;;;5090801;28;19917;-83
2021/10/13 03:01:09;;;;;;;;;;;6.20;99.90;;;;;;5056661;28;20322;-83
2021/10/13 03:03:38;;;;;;;;;;;6.10;99.90;;;;;;5077106;28;19916;-82
2021/10/13 03:06:04;;;;;;;;;;;6.10;99.90;;;;;;5076136;28;19909;-82
2021/10/13 03:08:32;;;;;;;;;;;6.00;99.90;;;;;;5059750;28;19971;-85
2021/10/13 03:10:58;;;;;;;;;;;6.00;99.90;;;;;;5045136;28;19913;-82
2021/10/13 03:13:29;;;;;;;;;;;6.00;99.90;;;;;;5046650;28;20392;-83
2021/10/13 03:15:56;;;;;;;;;;;6.00;99.90;;;;;;5058100;28;19912;-82
2021/10/13 03:18:22;;;;;;;;;;;5.90;99.90;;;;;;5039557;28;19909;-82
2021/10/13 03:20:49;;;;;;;;;;;5.80;99.90;;;;;;5057398;28;19920;-83
2021/10/13 03:23:16;;;;;;;;;;;5.90;99.90;;;;;;5064308;28;19916;-83
2021/10/13 03:25:42;;;;;;;;;;;5.90;99.90;;;;;;5044609;28;20603;-83
2021/10/13 03:28:07;;;;;;;;;;;5.90;99.90;;;;;;5046436;28;19952;-83
2021/10/13 03:30:33;;;;;;;;;;;5.90;99.90;;;;;;5058947;28;20273;-83
2021/10/13 03:32:58;;;;;;;;;;;5.80;99.90;;;;;;5076726;28;19959;-83
2021/10/13 03:35:28;;;;;;;;;;;5.90;99.90;;;;;;5039685;28;19913;-83
2021/10/13 03:37:55;;;;;;;;;;;5.80;99.90;;;;;;5053334;28;19909;-83
2021/10/13 03:40:20;;;;;;;;;;;5.90;99.90;;;;;;5048908;28;19912;-83
2021/10/13 03:42:46;;;;;;;;;;;5.80;99.90;;;;;;5046653;28;20418;-83
2021/10/13 03:45:15;;;;;;;;;;;5.90;99.90;;;;;;5070211;28;19971;-83
2021/10/13 03:47:41;;;;;;;;;;;5.80;99.90;;;;;;5039421;28;20008;-83
2021/10/13 03:50:07;;;;;;;;;;;5.80;99.90;;;;;;5071373;28;20370;-83
2021/10/13 03:52:32;;;;;;;;;;;5.80;99.90;;;;;;5059606;28;19917;-83
2021/10/13 03:54:58;;;;;;;;;;;5.70;99.90;;;;;;5080564;28;19960;-83
2021/10/13 03:57:23;;;;;;;;;;;5.70;99.90;;;;;;5057434;28;20368;-84
2021/10/13 03:59:48;;;;;;;;;;;5.70;99.90;;;;;;5039519;28;19919;-83
2021/10/13 04:02:14;;;;;;;;;;;5.80;99.90;;;;;;5039241;28;20007;-83
2021/10/13 04:04:39;;;;;;;;;;;5.80;99.90;;;;;;5055915;28;19909;-85
2021/10/13 04:07:05;;;;;;;;;;;5.80;99.90;;;;;;5057615;28;19908;-82
2021/10/13 04:09:30;;;;;;;;;;;5.80;99.90;;;;;;5076099;28;20069;-83
2021/10/13 04:11:56;;;;;;;;;;;5.80;99.90;;;;;;5050976;28;19916;-84
2021/10/13 04:14:21;;;;;;;;;;;5.90;99.90;;;;;;5057645;28;19909;-84
2021/10/13 04:16:47;;;;;;;;;;;5.90;99.90;;;;;;5042666;28;20421;-83
2021/10/13 04:19:12;;;;;;;;;;;5.90;99.90;;;;;;5063150;28;19991;-83
2021/10/13 04:21:38;;;;;;;;;;;5.90;99.90;;;;;;5071651;28;19916;-84
2021/10/13 04:24:03;;;;;;;;;;;5.90;99.90;;;;;;5060303;28;19908;-83
2021/10/13 04:26:29;;;;;;;;;;;5.90;99.90;;;;;;5070938;28;19944;-83
2021/10/13 04:28:54;;;;;;;;;;;5.90;99.90;;;;;;5050834;28;19957;-83
2021/10/13 04:31:20;;;;;;;;;;;5.90;99.90;;;;;;5056835;28;20038;-83
2021/10/13 04:33:45;;;;;;;;;;;5.90;99.90;;;;;;5045638;28;20078;-82
2021/10/13 04:36:11;;;;;;;;;;;5.90;99.90;;;;;;5046687;28;19913;-83
2021/10/13 04:38:36;;;;;;;;;;;5.90;99.90;;;;;;5042456;28;20510;-83
2021/10/13 04:41:02;;;;;;;;;;;5.90;99.90;;;;;;5047200;28;19909;-83
2021/10/13 04:43:27;;;;;;;;;;;5.80;99.90;;;;;;5061358;28;19908;-83
2021/10/13 04:45:53;;;;;;;;;;;5.80;99.90;;;;;;5069341;28;20287;-83
2021/10/13 04:48:18;;;;;;;;;;;5.80;99.90;;;;;;5061013;28;20287;-86
2021/10/13 04:50:44;;;;;;;;;;;5.70;99.90;;;;;;5037950;28;19931;-83
2021/10/13 04:53:09;;;;;;;;;;;5.80;99.90;;;;;;5058803;28;20363;-83
2021/10/13 04:55:35;;;;;;;;;;;5.80;99.90;;;;;;5070591;28;19912;-83
2021/10/13 04:58:00;;;;;;;;;;;5.80;99.90;;;;;;5052259;28;20384;-85
2021/10/13 05:00:26;;;;;;;;;;;5.90;99.90;;;;;;5046311;28;19951;-83
2021/10/13 05:02:53;;;;;;;;;;;5.80;99.90;;;;;;5058502;28;20304;-83
2021/10/13 05:05:18;;;;;;;;;;;5.80;99.90;;;;;;5077037;28;19991;-82
2021/10/13 05:07:44;;;;;;;;;;;5.80;99.90;;;;;;5060968;28;20005;-83
2021/10/13 05:10:09;;;;;;;;;;;5.80;99.90;;;;;;5087460;28;19912;-83
2021/10/13 05:12:35;;;;;;;;;;;5.80;99.90;;;;;;5067083;28;19951;-84
2021/10/13 05:15:00;;;;;;;;;;;5.80;99.90;;;;;;5039427;28;19989;-82
2021/10/13 05:17:26;;;;;;;;;;;5.80;99.90;;;;;;5057405;28;19924;-83
2021/10/13 05:19:51;;;;;;;;;;;5.80;99.90;;;;;;5056358;28;19908;-83
2021/10/13 05:22:17;;;;;;;;;;;5.80;99.90;;;;;;5059140;28;20022;-82
2021/10/13 05:24:42;;;;;;;;;;;5.80;99.90;;;;;;5058112;28;20219;-82
2021/10/13 05:27:08;;;;;;;;;;;5.80;99.90;;;;;;5057262;28;19961;-83
2021/10/13 05:29:33;;;;;;;;;;;5.80;99.90;;;;;;5057961;28;19909;-83
2021/10/13 05:31:59;;;;;;;;;;;5.80;99.90;;;;;;5048899;28;19909;-82
2021/10/13 05:34:24;;;;;;;;;;;5.80;99.90;;;;;;5064053;28;19909;-82
2021/10/13 05:36:50;;;;;;;;;;;5.80;99.90;;;;;;5066937;28;19913;-83
2021/10/13 05:39:15;;;;;;;;;;;5.70;99.90;;;;;;5039595;28;19996;-82
2021/10/13 05:41:41;;;;;;;;;;;5.60;99.90;;;;;;5056483;28;19909;-83
2021/10/13 05:44:06;;;;;;;;;;;5.50;99.90;;;;;;5069839;28;19963;-83
2021/10/13 05:46:32;;;;;;;;;;;5.50;99.90;;;;;;5075251;28;19955;-84
2021/10/13 05:48:57;;;;;;;;;;;5.60;99.90;;;;;;5090706;28;19912;-83
2021/10/13 05:51:23;;;;;;;;;;;5.60;99.90;;;;;;5057969;28;19916;-82
2021/10/13 05:53:48;;;;;;;;;;;5.50;99.90;;;;;;5075377;28;20389;-83
2021/10/13 05:56:14;;;;;;;;;;;5.50;99.90;;;;;;5042774;28;19913;-82
2021/10/13 05:58:39;;;;;;;;;;;5.50;99.90;;;;;;5056511;28;19917;-83
2021/10/13 06:01:07;;;;;;;;;;;5.40;99.90;;;;;;5055024;28;20390;-82
2021/10/13 06:03:32;;;;;;;;;;;5.40;99.90;;;;;;5056960;28;19958;-83
2021/10/13 06:05:58;;;;;;;;;;;5.40;99.90;;;;;;5050096;28;19909;-82
2021/10/13 06:08:23;;;;;;;;;;;5.40;99.90;;;;;;5061938;28;19915;-82
2021/10/13 06:10:49;;;;;;;;;;;5.40;99.90;;;;;;5052347;28;20364;-83
2021/10/13 06:13:14;;;;;;;;;;;5.40;99.90;;;;;;5057861;28;19909;-83
2021/10/13 06:15:40;;;;;;;;;;;5.50;99.90;;;;;;5059183;28;19912;-83
2021/10/13 06:18:08;;;;;;;;;;;5.60;99.90;;;;;;5065272;28;19916;-82
2021/10/13 06:20:34;;;;;;;;;;;5.70;99.90;;;;;;5039160;28;19909;-83
2021/10/13 06:22:59;;;;;;;;;;;5.70;99.90;;;;;;5057290;28;20261;-83
2021/10/13 06:25:25;;;;;;;;;;;5.70;99.90;;;;;;5047929;28;19960;-83
2021/10/13 06:27:50;;;;;;;;;;;5.80;99.90;;;;;;5055819;28;20288;-82
2021/10/13 06:30:16;;;;;;;;;;;5.80;99.90;;;;;;5067435;28;20339;-82
2021/10/13 06:32:41;;;;;;;;;;;5.80;99.90;;;;;;5056409;28;19908;-82
2021/10/13 06:35:07;;;;;;;;;;;5.90;99.90;;;;;;5065705;28;19939;-83
2021/10/13 06:37:33;;;;;;;;;;;5.90;99.90;;;;;;5057369;28;20011;-82
2021/10/13 06:39:58;;;;;;;;;;;6.00;99.90;;;;;;5077039;28;19950;-83
2021/10/13 06:42:24;;;;;;;;;;;6.00;99.90;;;;;;5069914;28;19915;-83
2021/10/13 06:44:49;;;;;;;;;;;6.10;99.90;;;;;;5060040;28;19915;-83
2021/10/13 06:47:17;;;;;;;;;;;6.10;99.90;;;;;;5074669;28;19912;-83
2021/10/13 06:49:44;;;;;;;;;;;6.10;99.90;;;;;;5052208;28;19913;-84
2021/10/13 06:52:10;;;;;;;;;;;6.20;99.90;;;;;;5075945;28;20102;-83
2021/10/13 06:54:35;;;;;;;;;;;6.30;99.90;;;;;;5065920;28;19940;-84
2021/10/13 06:57:01;;;;;;;;;;;6.20;99.90;;;;;;5071095;28;19924;-85
2021/10/13 06:59:26;;;;;;;;;;;6.30;99.90;;;;;;5070565;28;19908;-86
2021/10/13 07:01:53;;;;;;;;;;;6.40;99.90;;;;;;5048250;28;19960;-86
2021/10/13 07:04:18;;;;;;;;;;;6.40;99.90;;;;;;5047773;28;19908;-86
2021/10/13 07:06:44;;;;;;;;;;;6.50;99.90;;;;;;5084584;28;19927;-87
2021/10/13 07:09:09;;;;;;;;;;;6.70;99.90;;;;;;5083352;28;19912;-87
2021/10/13 07:11:35;;;;;;;;;;;6.80;99.90;;;;;;5114043;28;19904;-89
2021/10/13 07:14:03;;;;;;;;;;;6.60;99.90;;;;;;5082543;28;19901;-87
2021/10/13 07:16:29;;;;;;;;;;;6.40;99.90;;;;;;5078554;28;19911;-87
2021/10/13 07:18:54;;;;;;;;;;;6.40;99.90;;;;;;5082072;28;19913;-87
2021/10/13 07:21:20;;;;;;;;;;;6.80;99.90;;;;;;5089698;28;19912;-84
2021/10/13 07:23:45;;;;;;;;;;;7.00;99.90;;;;;;5080870;28;20387;-83
2021/10/13 07:26:11;;;;;;;;;;;7.10;99.90;;;;;;5045388;28;19915;-85
2021/10/13 07:28:40;;;;;;;;;;;6.70;99.90;;;;;;5070425;28;20483;-84
2021/10/13 07:31:06;;;;;;;;;;;6.50;99.90;;;;;;5053693;28;20322;-85
2021/10/13 07:33:31;;;;;;;;;;;6.30;99.90;;;;;;5056475;28;19987;-85
2021/10/13 07:35:57;;;;;;;;;;;6.40;99.90;;;;;;5074421;28;19917;-84
2021/10/13 07:38:22;;;;;;;;;;;6.40;99.90;;;;;;5076126;28;19909;-84
2021/10/13 07:40:48;;;;;;;;;;;6.50;99.90;;;;;;5086111;28;19908;-85
2021/10/13 07:43:14;;;;;;;;;;;6.60;99.90;;;;;;5056845;28;19912;-85
2021/10/13 07:45:40;;;;;;;;;;;6.50;99.90;;;;;;5090891;28;19915;-84
2021/10/13 07:48:05;;;;;;;;;;;6.90;99.90;;;;;;5091037;28;19995;-85
2021/10/13 07:50:31;;;;;;;;;;;7.20;99.90;;;;;;5086575;28;19946;-84
2021/10/13 07:52:56;;;;;;;;;;;7.30;99.90;;;;;;5081901;28;19912;-85
2021/10/13 07:55:22;;;;;;;;;;;7.50;99.90;;;;;;5070073;28;20388;-84
2021/10/13 07:57:47;;;;;;;;;;;7.30;99.90;;;;;;5072428;28;20273;-84
2021/10/13 08:00:13;;;;;;;;;;;7.60;99.90;;;;;;5086967;28;19908;-85
2021/10/13 08:02:45;;;;;;;;;;;8.10;99.90;;;;;;5055468;28;20510;-85
2021/10/13 08:05:11;;;;;;;;;;;10.10;99.90;;;;;;5080293;28;19924;-86
2021/10/13 08:07:37;;;;;;;;;;;11.90;99.90;;;;;;5072482;28;20348;-84
2021/10/13 08:10:02;;;;;;;;;;;11.70;99.90;;;;;;5076532;28;19912;-84
2021/10/13 08:12:28;;;;;;;;;;;10.80;99.90;;;;;;5079332;28;19915;-85
2021/10/13 08:14:53;;;;;;;;;;;11.20;99.90;;;;;;5073796;28;19917;-86
2021/10/13 08:17:19;;;;;;;;;;;10.70;99.90;;;;;;5071467;28;19963;-85
2021/10/13 08:19:44;;;;;;;;;;;9.20;99.90;;;;;;5072513;28;19908;-85
2021/10/13 08:22:10;;;;;;;;;;;10.10;99.90;;;;;;5072482;28;20287;-86
2021/10/13 08:24:35;;;;;;;;;;;11.40;99.90;;;;;;5056129;28;19916;-86
2021/10/13 08:27:02;;;;;;;;;;;13.10;99.90;;;;;;5072644;28;20380;-84
2021/10/13 08:29:28;;;;;;;;;;;14.50;99.90;;;;;;5073897;28;19919;-85
2021/10/13 08:31:54;;;;;;;;;;;14.60;99.90;;;;;;5074094;28;20004;-85
2021/10/13 08:34:19;;;;;;;;;;;14.30;99.90;;;;;;5072228;28;20399;-85
2021/10/13 08:36:46;;;;;;;;;;;15.70;99.90;;;;;;5072102;28;19912;-86
2021/10/13 08:39:13;;;;;;;;;;;16.20;99.90;;;;;;5073707;28;19951;-84
2021/10/13 08:41:40;;;;;;;;;;;16.50;99.90;;;;;;5054934;28;19943;-89
2021/10/13 08:44:05;;;;;;;;;;;16.20;99.90;;;;;;5054897;28;20360;-87
2021/10/13 08:46:31;;;;;;;;;;;17.40;99.90;;;;;;5055287;28;19909;-88
2021/10/13 08:48:56;;;;;;;;;;;17.40;99.10;;;;;;5054845;28;20421;-86
2021/10/13 08:51:22;;;;;;;;;;;18.10;98.10;;;;;;5070840;28;19915;-87
2021/10/13 08:53:50;;;;;;;;;;;18.60;98.60;;;;;;5054362;28;19912;-88
2021/10/13 08:56:25;;;;;;;;;;;18.30;96.70;;;;;;5068312;28;19982;-86
2021/10/13 08:58:50;;;;;;;;;;;18.80;96.60;;;;;;5053980;28;19969;-85
2021/10/13 09:01:23;;;;;;;;;;;17.00;96.50;;;;;;5069426;28;19995;-87
2021/10/13 09:03:56;;;;;;;;;;;17.60;99.30;;;;;;5053018;28;19915;-87
2021/10/13 09:06:25;;;;;;;;;;;19.00;95.90;;;;;;5055455;28;19915;-86
2021/10/13 09:08:53;;;;;;;;;;;17.20;96.20;;;;;;5055607;28;19916;-86
2021/10/13 09:11:50;;;;;;;;;;;16.50;96.50;;;;;;5055253;28;19916;-86
2021/10/13 09:14:19;;;;;;;;;;;18.60;96.00;;;;;;5036663;28;19909;-86
2021/10/13 09:16:49;;;;;;;;;;;18.80;94.50;;;;;;5060724;28;20458;-86
2021/10/13 09:19:15;;;;;;;;;;;18.50;95.20;;;;;;5067864;28;19908;-87
2021/10/13 09:21:46;;;;;;;;;;;20.80;93.70;;;;;;5043550;28;20249;-86
2021/10/13 09:24:12;;;;;;;;;;;20.00;89.90;;;;;;5078237;28;19909;-87
2021/10/13 09:26:38;;;;;;;;;;;19.20;90.40;;;;;;5071520;28;19913;-86
2021/10/13 09:29:06;;;;;;;;;;;15.50;95.10;;;;;;5071227;28;19943;-85
2021/10/13 09:31:31;;;;;;;;;;;14.00;96.80;;;;;;5063928;28;20015;-86
2021/10/13 09:34:01;;;;;;;;;;;13.20;99.20;;;;;;5066991;28;19956;-86
2021/10/13 09:36:33;;;;;;;;;;;12.70;99.90;;;;;;5066628;28;19913;-87
2021/10/13 09:39:05;;;;;;;;;;;12.40;99.90;;;;;;5053777;28;19913;-87
2021/10/13 09:41:31;;;;;;;;;;;12.40;99.90;;;;;;5072401;28;20018;-86
2021/10/13 09:44:11;;;;;;;;;;;12.50;99.90;;;;;;5055014;28;20391;-85
2021/10/13 09:46:38;;;;;;;;;;;12.30;99.90;;;;;;5053535;28;19990;-87
2021/10/13 09:49:04;;;;;;;;;;;11.60;99.90;;;;;;5053196;28;20417;-85
2021/10/13 09:51:35;;;;;;;;;;;10.50;99.90;;;;;;5070782;28;19909;-86
2021/10/13 09:54:06;;;;;;;;;;;9.40;99.90;;;;;;5053536;28;19912;-87
2021/10/13 09:56:35;;;;;;;;;;;8.80;99.90;;;;;;5054271;28;20369;-86
2021/10/13 09:59:11;;;;;;;;;;;8.60;99.90;;;;;;5053717;28;19920;-85
2021/10/13 10:01:37;;;;;;;;;;;8.70;99.90;;;;;;5046918;28;20460;-86
2021/10/13 10:04:04;;;;;;;;;;;8.60;99.90;;;;;;5053434;28;19908;-87
2021/10/13 10:06:30;;;;;;;;;;;8.60;99.90;;;;;;5051087;28;19909;-88
2021/10/13 10:09:03;;;;;;;;;;;8.60;99.90;;;;;;5072029;28;19908;-88
2021/10/13 10:11:34;;;;;;;;;;;8.80;99.90;;;;;;5078027;28;19909;-87
2021/10/13 10:14:02;;;;;;;;;;;8.80;99.90;;;;;;5073580;28;19915;-88
2021/10/13 10:16:37;;;;;;;;;;;8.90;99.90;;;;;;5056015;28;19916;-87
2021/10/13 10:19:32;;;;;;;;;;;8.90;99.90;;;;;;5053513;28;20580;-86
2021/10/13 10:22:01;;;;;;;;;;;9.00;99.90;;;;;;5033054;28;19912;-85
2021/10/13 10:24:30;;;;;;;;;;;9.00;99.90;;;;;;5051984;28;20422;-87
2021/10/13 10:27:15;;;;;;;;;;;9.00;99.90;;;;;;5074906;28;20292;-86
2021/10/13 10:29:40;;;;;;;;;;;9.10;99.90;;;;;;5074420;28;19916;-85
2021/10/13 10:32:13;;;;;;;;;;;9.10;99.90;;;;;;5058052;28;19908;-87
2021/10/13 10:34:39;;;;;;;;;;;9.10;99.90;;;;;;5091510;28;19908;-86
2021/10/13 10:37:04;;;;;;;;;;;8.90;99.90;;;;;;5073990;28;19919;-86
2021/10/13 10:39:48;;;;;;;;;;;9.00;99.90;;;;;;5053746;28;19908;-85
2021/10/13 10:42:34;;;;;;;;;;;9.00;99.90;;;;;;5048363;28;19924;-85
2021/10/13 10:45:08;;;;;;;;;;;9.50;99.90;;;;;;5049085;28;19909;-86
2021/10/13 10:47:47;;;;;;;;;;;10.10;99.90;;;;;;5054529;28;19931;-86
2021/10/13 10:50:12;;;;;;;;;;;10.40;99.90;;;;;;5075614;28;20391;-86
2021/10/13 10:52:58;;;;;;;;;;;10.50;99.90;;;;;;5075368;28;19916;-84
2021/10/13 10:55:33;;;;;;;;;;;10.50;99.90;;;;;;5055970;28;19999;-85
2021/10/13 10:58:11;;;;;;;;;;;11.00;99.90;;;;;;5077278;28;20332;-84
2021/10/13 11:00:37;;;;;;;;;;;11.80;99.90;;;;;;5043141;28;19915;-85
2021/10/13 11:03:18;;;;;;;;;;;11.80;99.90;;;;;;5054544;28;19996;-84
2021/10/13 11:05:45;;;;;;;;;;;11.60;99.90;;;;;;5054584;28;19932;-83
2021/10/13 11:08:10;;;;;;;;;;;12.60;99.90;;;;;;5055256;28;20287;-84
2021/10/13 11:10:36;;;;;;;;;;;15.70;99.90;;;;;;5048924;28;19915;-84
2021/10/13 11:13:01;;;;;;;;;;;15.90;99.90;;;;;;5075098;28;19916;-85
2021/10/13 11:15:28;;;;;;;;;;;14.70;99.90;;;;;;5074171;28;20386;-84
2021/10/13 11:17:53;;;;;;;;;;;13.50;99.90;;;;;;5056781;28;20410;-85
2021/10/13 11:20:20;;;;;;;;;;;12.20;99.90;;;;;;5073517;28;19908;-85
2021/10/13 11:22:55;;;;;;;;;;;12.10;99.90;;;;;;5057121;28;19912;-84
2021/10/13 11:25:22;;;;;;;;;;;11.60;99.90;;;;;;5036643;28;19909;-84
2021/10/13 11:28:00;;;;;;;;;;;13.70;99.90;;;;;;5087690;28;19912;-84
2021/10/13 11:30:26;;;;;;;;;;;12.30;99.90;;;;;;5073911;28;19931;-85
2021/10/13 11:32:51;;;;;;;;;;;11.30;99.90;;;;;;5073915;28;19913;-84
2021/10/13 11:35:20;;;;;;;;;;;10.60;99.90;;;;;;5073727;28;20053;-83
2021/10/13 11:37:51;;;;;;;;;;;10.10;99.90;;;;;;5074138;28;20261;-83
2021/10/13 11:40:17;;;;;;;;;;;10.10;99.90;;;;;;5068331;28;20390;-83
2021/10/13 11:42:43;;;;;;;;;;;10.10;99.90;;;;;;5056831;28;20007;-83
2021/10/13 11:45:16;;;;;;;;;;;9.80;99.90;;;;;;5073596;28;20009;-83
2021/10/13 11:47:42;;;;;;;;;;;9.60;99.90;;;;;;5056970;28;20292;-86
2021/10/13 11:50:10;;;;;;;;;;;9.70;99.90;;;;;;5074833;28;19920;-85
2021/10/13 11:52:36;;;;;;;;;;;9.40;99.90;;;;;;5056471;28;20391;-86
2021/10/13 11:55:13;;;;;;;;;;;9.60;99.90;;;;;;5056854;28;19991;-85
2021/10/13 11:57:39;;;;;;;;;;;9.70;99.90;;;;;;5074681;28;19920;-86
2021/10/13 12:00:14;;;;;;;;;;;9.80;99.90;;;;;;5056532;28;20287;-85
2021/10/13 12:03:00;;;;;;;;;;;9.90;99.90;;;;;;5068311;28;20388;-86
2021/10/13 12:05:30;;;;;;;;;;;10.00;99.90;;;;;;5061989;28;19908;-86
2021/10/13 12:08:05;;;;;;;;;;;10.40;99.90;;;;;;5037628;28;20261;-85
2021/10/13 12:10:35;;;;;;;;;;;10.20;99.90;;;;;;5056176;28;19913;-84
2021/10/13 12:13:05;;;;;;;;;;;10.60;99.90;;;;;;5053360;28;19995;-86
2021/10/13 12:15:31;;;;;;;;;;;11.30;99.90;;;;;;5072880;28;19952;-86
2021/10/13 12:18:12;;;;;;;;;;;11.00;99.90;;;;;;5054212;28;19920;-87
2021/10/13 12:20:37;;;;;;;;;;;10.70;99.90;;;;;;5050769;28;20388;-88
2021/10/13 12:23:17;;;;;;;;;;;10.40;99.90;;;;;;5072082;28;19909;-86
2021/10/13 12:25:43;;;;;;;;;;;10.70;99.90;;;;;;5056036;28;19908;-86
2021/10/13 12:28:16;;;;;;;;;;;10.80;99.90;;;;;;5055652;28;20284;-87
2021/10/13 12:30:42;;;;;;;;;;;10.70;99.90;;;;;;5055926;28;20381;-86
2021/10/13 12:33:18;;;;;;;;;;;10.70;99.90;;;;;;5055609;28;19912;-87
2021/10/13 12:35:44;;;;;;;;;;;10.80;99.90;;;;;;5055442;28;19912;-85
2021/10/13 12:38:14;;;;;;;;;;;10.70;99.90;;;;;;5073574;28;19991;-86
2021/10/13 12:40:40;;;;;;;;;;;10.70;99.90;;;;;;5054957;28;19993;-86
2021/10/13 12:43:35;;;;;;;;;;;10.10;99.90;;;;;;5055511;28;19909;-86
2021/10/13 12:46:17;;;;;;;;;;;10.00;99.90;;;;;;5055670;28;19920;-85
2021/10/13 12:48:42;;;;;;;;;;;9.90;99.90;;;;;;5055708;28;19916;-85
2021/10/13 12:51:09;;;;;;;;;;;10.00;99.90;;;;;;5072180;28;19917;-85
2021/10/13 12:53:36;;;;;;;;;;;10.20;99.90;;;;;;5055243;28;19930;-85
2021/10/13 12:56:02;;;;;;;;;;;10.60;99.90;;;;;;5055232;28;20379;-86
2021/10/13 12:58:28;;;;;;;;;;;10.90;99.90;;;;;;5055370;28;20003;-85
2021/10/13 13:00:53;;;;;;;;;;;10.40;99.90;;;;;;5055418;28;20339;-85
2021/10/13 13:03:19;;;;;;;;;;;10.40;99.90;;;;;;5073088;28;19909;-85
2021/10/13 13:05:44;;;;;;;;;;;10.20;99.90;;;;;;5071508;28;19926;-86
2021/10/13 13:08:10;;;;;;;;;;;10.20;99.90;;;;;;5071825;28;19909;-85
2021/10/13 13:10:35;;;;;;;;;;;10.20;99.90;;;;;;5071636;28;19908;-85
2021/10/13 13:13:02;;;;;;;;;;;10.60;99.90;;;;;;5072888;28;19916;-85
2021/10/13 13:15:28;;;;;;;;;;;10.20;99.90;;;;;;5071580;28;19913;-86
2021/10/13 13:17:53;;;;;;;;;;;9.90;99.90;;;;;;5067883;28;19916;-85
2021/10/13 13:20:19;;;;;;;;;;;10.10;99.90;;;;;;5070693;28;19908;-85
2021/10/13 13:22:44;;;;;;;;;;;10.00;99.90;;;;;;5072516;28;19962;-85
2021/10/13 13:25:10;;;;;;;;;;;10.00;99.90;;;;;;5071737;28;19969;-85
2021/10/13 13:27:35;;;;;;;;;;;9.80;99.90;;;;;;5071562;28;19909;-85
2021/10/13 13:30:01;;;;;;;;;;;9.70;99.90;;;;;;5055191;28;19913;-86
2021/10/13 13:32:27;;;;;;;;;;;9.60;99.90;;;;;;5072421;28;19909;-85
2021/10/13 13:34:52;;;;;;;;;;;9.60;99.90;;;;;;5072721;28;20277;-86
2021/10/13 13:37:18;;;;;;;;;;;9.70;99.90;;;;;;5072762;28;19995;-86
2021/10/13 13:39:43;;;;;;;;;;;9.70;99.90;;;;;;5071519;28;20007;-85
2021/10/13 13:42:09;;;;;;;;;;;10.00;99.90;;;;;;5072440;28;19915;-85
2021/10/13 13:44:34;;;;;;;;;;;10.20;99.90;;;;;;5070995;28;20365;-85
2021/10/13 13:47:00;;;;;;;;;;;10.70;99.90;;;;;;5070856;28;19912;-86
2021/10/13 13:49:25;;;;;;;;;;;10.90;99.90;;;;;;5071247;28;19908;-85
2021/10/13 13:51:51;;;;;;;;;;;11.30;99.90;;;;;;5072638;28;20318;-86
2021/10/13 13:54:16;;;;;;;;;;;11.30;99.90;;;;;;5070834;28;19909;-86
2021/10/13 13:56:42;;;;;;;;;;;11.20;99.90;;;;;;5072446;28;20007;-86
2021/10/13 13:59:07;;;;;;;;;;;10.90;99.90;;;;;;5071216;28;19970;-86
2021/10/13 14:01:56;;;;;;;;;;;10.50;99.90;;;;;;5070650;28;20273;-87
2021/10/13 14:04:21;;;;;;;;;;;10.00;99.90;;;;;;5047802;28;19908;-87
2021/10/13 14:06:49;;;;;;;;;;;9.60;99.90;;;;;;5071123;28;19920;-85
2021/10/13 14:09:15;;;;;;;;;;;9.40;99.90;;;;;;5054314;28;19919;-84
2021/10/13 14:11:40;;;;;;;;;;;9.30;99.90;;;;;;5072477;28;20356;-85
2021/10/13 14:14:06;;;;;;;;;;;9.30;99.90;;;;;;5069657;28;19909;-85
2021/10/13 14:16:31;;;;;;;;;;;9.10;99.90;;;;;;5068822;28;19920;-84
2021/10/13 14:18:57;;;;;;;;;;;9.10;99.90;;;;;;5070202;28;19931;-84
2021/10/13 14:21:22;;;;;;;;;;;9.00;99.90;;;;;;5051225;28;19908;-85
2021/10/13 14:23:47;;;;;;;;;;;9.10;99.90;;;;;;5071742;28;19912;-84
2021/10/13 14:26:13;;;;;;;;;;;9.20;99.90;;;;;;5070910;28;19908;-83
2021/10/13 14:28:38;;;;;;;;;;;9.20;99.90;;;;;;5071456;28;20364;-84